createdAt,value
2022-12-28T00:01:58.132Z,997
2022-12-28T00:04:24.239Z,996.9
2022-12-28T00:06:50.340Z,996.8
2022-12-28T00:09:16.426Z,996.9
2022-12-28T00:11:42.557Z,996.8
2022-12-28T00:14:08.612Z,996.8
2022-12-28T00:16:34.724Z,996.8
2022-12-28T00:19:00.807Z,996.7
2022-12-28T00:21:26.916Z,996.7
2022-12-28T00:23:52.999Z,996.6
2022-12-28T00:26:18.123Z,996.6
2022-12-28T00:28:44.224Z,996.7
2022-12-28T00:31:10.664Z,996.7
2022-12-28T00:33:36.427Z,996.6
2022-12-28T00:36:02.514Z,996.6
2022-12-28T00:38:28.616Z,996.6
2022-12-28T00:40:54.708Z,996.6
2022-12-28T00:43:20.816Z,996.5
2022-12-28T00:45:46.952Z,996.5
2022-12-28T00:48:13.015Z,996.5
2022-12-28T00:50:39.107Z,996.5
2022-12-28T00:53:05.198Z,996.6
2022-12-28T00:55:31.293Z,996.6
2022-12-28T00:57:56.418Z,996.6
2022-12-28T01:00:22.493Z,996.6
2022-12-28T01:02:48.592Z,996.5
2022-12-28T01:05:14.709Z,996.5
2022-12-28T01:07:40.794Z,996.4
2022-12-28T01:10:06.895Z,996.4
2022-12-28T01:12:32.997Z,996.4
2022-12-28T01:14:59.094Z,996.4
2022-12-28T01:17:25.195Z,996.3
2022-12-28T01:19:51.288Z,996.3
2022-12-28T01:22:17.377Z,996.3
2022-12-28T01:24:43.490Z,996.3
2022-12-28T01:27:09.596Z,996.2
2022-12-28T01:29:34.691Z,996.1
2022-12-28T01:32:00.787Z,996.1
2022-12-28T01:34:26.888Z,996
2022-12-28T01:36:52.973Z,996
2022-12-28T01:39:19.075Z,996
2022-12-28T01:41:45.174Z,995.9
2022-12-28T01:44:11.276Z,996
2022-12-28T01:46:37.366Z,995.9
2022-12-28T01:49:03.482Z,995.9
2022-12-28T01:51:29.577Z,995.9
2022-12-28T01:53:55.655Z,995.8
2022-12-28T01:56:21.768Z,995.7
2022-12-28T01:58:47.878Z,995.7
2022-12-28T02:01:12.976Z,995.7
2022-12-28T02:03:39.074Z,995.6
2022-12-28T02:06:05.164Z,995.7
2022-12-28T02:08:31.254Z,995.6
2022-12-28T02:10:57.364Z,995.5
2022-12-28T02:13:23.503Z,995.5
2022-12-28T02:15:49.591Z,995.5
2022-12-28T02:18:15.675Z,995.4
2022-12-28T02:20:41.790Z,995.4
2022-12-28T02:23:07.846Z,995.4
2022-12-28T02:25:33.951Z,995.4
2022-12-28T02:28:00.086Z,995.3
2022-12-28T02:30:26.164Z,995.2
2022-12-28T02:32:51.244Z,995.2
2022-12-28T02:35:17.358Z,995.2
2022-12-28T02:37:43.463Z,995.1
2022-12-28T02:40:09.674Z,995.1
2022-12-28T02:42:35.641Z,995.1
2022-12-28T02:45:01.728Z,995.1
2022-12-28T02:47:27.860Z,995
2022-12-28T02:49:53.928Z,995.1
2022-12-28T02:52:20.024Z,994.9
2022-12-28T02:54:46.131Z,994.9
2022-12-28T02:57:12.238Z,994.9
2022-12-28T02:59:38.349Z,994.8
2022-12-28T03:02:04.424Z,994.8
2022-12-28T03:04:29.539Z,994.8
2022-12-28T03:06:55.639Z,994.7
2022-12-28T03:09:21.739Z,994.7
2022-12-28T03:11:47.834Z,994.7
2022-12-28T03:14:13.933Z,994.6
2022-12-28T03:16:40.036Z,994.6
2022-12-28T03:19:06.154Z,994.5
2022-12-28T03:21:32.228Z,994.6
2022-12-28T03:23:58.324Z,994.5
2022-12-28T03:26:24.431Z,994.5
2022-12-28T03:28:50.504Z,994.6
2022-12-28T03:31:16.620Z,994.6
2022-12-28T03:33:42.720Z,994.5
2022-12-28T03:36:07.830Z,994.5
2022-12-28T03:38:33.923Z,994.4
2022-12-28T03:41:00.026Z,994.3
2022-12-28T03:43:26.120Z,994.3
2022-12-28T03:45:52.238Z,994.3
2022-12-28T03:48:18.313Z,994.3
2022-12-28T03:50:44.422Z,994.3
2022-12-28T03:53:10.507Z,994.3
2022-12-28T03:55:36.611Z,994.2
2022-12-28T03:58:02.705Z,994.2
2022-12-28T04:00:28.814Z,994.2
2022-12-28T04:02:54.933Z,994.1
2022-12-28T04:05:21.009Z,994.1
2022-12-28T04:07:46.108Z,994.1
2022-12-28T04:10:12.212Z,994
2022-12-28T04:12:38.310Z,994
2022-12-28T04:15:04.405Z,994
2022-12-28T04:17:30.514Z,994
2022-12-28T04:19:56.605Z,993.9
2022-12-28T04:22:22.702Z,993.9
2022-12-28T04:24:48.863Z,993.9
2022-12-28T04:27:14.900Z,993.8
2022-12-28T04:29:40.982Z,993.8
2022-12-28T04:32:07.094Z,993.9
2022-12-28T04:34:33.185Z,993.9
2022-12-28T04:36:59.272Z,993.9
2022-12-28T04:39:24.397Z,993.8
2022-12-28T04:41:50.493Z,993.8
2022-12-28T04:44:16.599Z,993.8
2022-12-28T04:46:42.676Z,993.6
2022-12-28T04:49:08.786Z,993.6
2022-12-28T04:51:34.875Z,993.6
2022-12-28T04:54:00.007Z,993.5
2022-12-28T04:56:26.193Z,993.6
2022-12-28T04:58:52.232Z,993.6
2022-12-28T05:01:18.298Z,993.6
2022-12-28T05:03:44.398Z,993.7
2022-12-28T05:06:10.471Z,993.6
2022-12-28T05:08:36.571Z,993.6
2022-12-28T05:11:02.677Z,993.7
2022-12-28T05:13:28.764Z,993.6
2022-12-28T05:15:54.873Z,993.6
2022-12-28T05:18:20.961Z,993.5
2022-12-28T05:20:47.075Z,993.5
2022-12-28T05:23:13.156Z,993.5
2022-12-28T05:25:38.272Z,993.5
2022-12-28T05:28:04.371Z,993.6
2022-12-28T05:30:30.466Z,993.6
2022-12-28T05:32:56.578Z,993.6
2022-12-28T05:35:22.650Z,993.6
2022-12-28T05:37:48.802Z,993.6
2022-12-28T05:40:14.858Z,993.6
2022-12-28T05:42:40.952Z,993.5
2022-12-28T05:45:07.067Z,993.5
2022-12-28T05:47:33.147Z,993.4
2022-12-28T05:49:59.243Z,993.4
2022-12-28T05:52:25.358Z,993.4
2022-12-28T05:54:51.439Z,993.3
2022-12-28T05:57:16.562Z,993.4
2022-12-28T05:59:42.659Z,993.4
2022-12-28T06:02:08.756Z,993.4
2022-12-28T06:04:34.851Z,993.4
2022-12-28T06:07:00.953Z,993.4
2022-12-28T06:09:27.054Z,993.2
2022-12-28T06:11:53.138Z,993.3
2022-12-28T06:14:19.256Z,993.3
2022-12-28T06:16:45.329Z,993.3
2022-12-28T06:19:11.429Z,993.2
2022-12-28T06:21:37.527Z,993.2
2022-12-28T06:24:03.622Z,993.3
2022-12-28T06:26:29.730Z,993.3
2022-12-28T06:28:54.842Z,993.2
2022-12-28T06:31:20.957Z,993.2
2022-12-28T06:33:47.037Z,993.2
2022-12-28T06:36:13.139Z,993.2
2022-12-28T06:38:39.253Z,993.1
2022-12-28T06:41:05.316Z,993.2
2022-12-28T06:43:31.425Z,993.1
2022-12-28T06:45:57.522Z,993.2
2022-12-28T06:48:23.779Z,993.2
2022-12-28T06:50:49.705Z,993.1
2022-12-28T06:53:15.805Z,993.1
2022-12-28T06:55:41.899Z,993.1
2022-12-28T06:58:08.001Z,993.2
2022-12-28T07:00:33.111Z,993.2
2022-12-28T07:02:59.239Z,993.1
2022-12-28T07:05:25.309Z,993.2
2022-12-28T07:07:51.412Z,993.1
2022-12-28T07:10:17.552Z,993
2022-12-28T07:12:43.595Z,993.1
2022-12-28T07:15:09.788Z,993
2022-12-28T07:17:35.791Z,993.1
2022-12-28T07:20:01.894Z,993
2022-12-28T07:22:28.001Z,993.1
2022-12-28T07:24:54.078Z,993
2022-12-28T07:27:20.188Z,993
2022-12-28T07:29:46.286Z,992.9
2022-12-28T07:32:11.390Z,993
2022-12-28T07:34:37.585Z,992.9
2022-12-28T07:37:03.633Z,992.9
2022-12-28T07:39:29.762Z,992.9
2022-12-28T07:41:55.774Z,993
2022-12-28T07:44:21.884Z,992.8
2022-12-28T07:46:48.071Z,992.9
2022-12-28T07:49:14.071Z,992.8
2022-12-28T07:51:40.177Z,992.8
2022-12-28T07:54:06.271Z,992.8
2022-12-28T07:58:58.463Z,992.8
2022-12-28T08:01:24.576Z,992.7
2022-12-28T08:03:49.695Z,992.7
2022-12-28T08:06:15.784Z,992.7
2022-12-28T08:08:41.852Z,992.7
2022-12-28T08:11:07.959Z,992.7
2022-12-28T08:13:34.061Z,992.7
2022-12-28T08:16:00.151Z,992.7
2022-12-28T08:18:26.241Z,992.7
2022-12-28T08:20:52.370Z,992.7
2022-12-28T08:23:18.472Z,992.7
2022-12-28T08:25:44.523Z,992.7
2022-12-28T08:28:10.740Z,992.6
2022-12-28T08:30:36.835Z,992.6
2022-12-28T08:33:02.821Z,992.5
2022-12-28T08:35:27.932Z,992.6
2022-12-28T08:37:54.023Z,992.5
2022-12-28T08:40:20.119Z,992.5
2022-12-28T08:42:46.356Z,992.5
2022-12-28T08:45:12.346Z,992.5
2022-12-28T08:47:38.480Z,992.5
2022-12-28T08:50:04.497Z,992.4
2022-12-28T08:52:30.618Z,992.5
2022-12-28T08:54:56.758Z,992.5
2022-12-28T08:57:22.820Z,992.4
2022-12-28T08:59:48.891Z,992.5
2022-12-28T09:02:15.032Z,992.5
2022-12-28T09:04:41.097Z,992.5
2022-12-28T09:07:06.208Z,992.5
2022-12-28T09:09:32.498Z,992.5
2022-12-28T09:11:58.411Z,992.4
2022-12-28T09:14:24.510Z,992.4
2022-12-28T09:16:50.607Z,992.4
2022-12-28T09:19:16.686Z,992.4
2022-12-28T09:21:42.776Z,992.4
2022-12-28T09:24:08.882Z,992.4
2022-12-28T09:26:34.965Z,992.4
2022-12-28T09:29:01.082Z,992.5
2022-12-28T09:31:27.163Z,992.4
2022-12-28T09:33:53.257Z,992.4
2022-12-28T09:36:19.374Z,992.3
2022-12-28T09:38:44.454Z,992.3
2022-12-28T09:41:10.568Z,992.4
2022-12-28T09:43:36.666Z,992.2
2022-12-28T09:46:02.789Z,992.2
2022-12-28T09:48:28.862Z,992.2
2022-12-28T09:50:55.032Z,992.2
2022-12-28T09:53:21.129Z,992.1
2022-12-28T09:55:47.258Z,992.1
2022-12-28T09:58:13.306Z,992.1
2022-12-28T10:00:39.373Z,992.1
2022-12-28T10:03:05.488Z,992.1
2022-12-28T10:05:31.570Z,992.1
2022-12-28T10:07:57.667Z,992.1
2022-12-28T10:10:22.768Z,992
2022-12-28T10:12:48.891Z,991.9
2022-12-28T10:15:15.026Z,991.9
2022-12-28T10:17:41.097Z,991.9
2022-12-28T10:20:07.135Z,991.8
2022-12-28T10:22:33.207Z,991.8
2022-12-28T10:24:59.302Z,991.8
2022-12-28T10:27:25.405Z,991.7
2022-12-28T10:29:51.536Z,991.6
2022-12-28T10:32:17.616Z,991.6
2022-12-28T10:34:43.705Z,991.7
2022-12-28T10:37:09.950Z,991.5
2022-12-28T10:39:36.041Z,991.5
2022-12-28T10:42:00.991Z,991.5
2022-12-28T10:44:27.239Z,991.5
2022-12-28T10:46:53.189Z,991.4
2022-12-28T10:49:19.410Z,991.3
2022-12-28T10:51:45.504Z,991.3
2022-12-28T10:54:11.494Z,991.4
2022-12-28T10:56:37.732Z,991.4
2022-12-28T10:59:03.707Z,991.2
2022-12-28T11:01:29.944Z,991.3
2022-12-28T11:03:55.857Z,991.3
2022-12-28T11:06:21.937Z,991.3
2022-12-28T11:08:48.037Z,991.2
2022-12-28T11:11:14.192Z,991.1
2022-12-28T11:13:39.348Z,991.2
2022-12-28T11:16:05.396Z,991.2
2022-12-28T11:18:31.512Z,991.1
2022-12-28T11:20:57.601Z,991.1
2022-12-28T11:23:23.700Z,991.1
2022-12-28T11:25:49.777Z,991.1
2022-12-28T11:28:15.886Z,991
2022-12-28T11:30:41.970Z,990.9
2022-12-28T11:33:08.051Z,990.8
2022-12-28T11:35:34.153Z,990.8
2022-12-28T11:38:00.225Z,990.8
2022-12-28T11:40:26.322Z,990.7
2022-12-28T11:42:52.408Z,990.6
2022-12-28T11:45:17.522Z,990.6
2022-12-28T11:47:43.636Z,990.7
2022-12-28T11:50:09.723Z,990.6
2022-12-28T11:52:35.807Z,990.6
2022-12-28T11:55:01.898Z,990.5
2022-12-28T11:57:28.007Z,990.5
2022-12-28T11:59:54.077Z,990.5
2022-12-28T12:02:20.363Z,990.5
2022-12-28T12:04:46.273Z,990.5
2022-12-28T12:07:12.366Z,990.4
2022-12-28T12:09:38.480Z,990.4
2022-12-28T12:12:04.550Z,990.3
2022-12-28T12:14:30.656Z,990.2
2022-12-28T12:16:55.788Z,990.2
2022-12-28T12:19:21.874Z,990.1
2022-12-28T12:21:47.949Z,990
2022-12-28T12:24:14.059Z,990
2022-12-28T12:26:40.137Z,990
2022-12-28T12:29:06.253Z,990
2022-12-28T12:31:32.367Z,990
2022-12-28T12:33:58.437Z,989.9
2022-12-28T12:36:24.591Z,989.9
2022-12-28T12:38:50.650Z,990
2022-12-28T12:41:16.717Z,989.9
2022-12-28T12:43:42.870Z,989.9
2022-12-28T12:46:08.919Z,989.8
2022-12-28T12:48:34.022Z,989.8
2022-12-28T12:51:00.113Z,989.8
2022-12-28T12:53:26.210Z,989.7
2022-12-28T12:55:52.314Z,989.6
2022-12-28T12:58:18.414Z,989.5
2022-12-28T13:00:44.504Z,989.5
2022-12-28T13:03:09.600Z,989.6
2022-12-28T13:05:35.721Z,989.6
2022-12-28T13:08:01.799Z,989.5
2022-12-28T13:10:27.905Z,989.5
2022-12-28T13:12:54.007Z,989.5
2022-12-28T13:15:20.100Z,989.5
2022-12-28T13:17:46.212Z,989.4
2022-12-28T13:20:12.297Z,989.4
2022-12-28T13:22:38.381Z,989.4
2022-12-28T13:25:04.468Z,989.4
2022-12-28T13:27:30.566Z,989.3
2022-12-28T13:29:56.657Z,989.4
2022-12-28T13:32:22.753Z,989.3
2022-12-28T13:34:47.881Z,989.4
2022-12-28T13:37:13.993Z,989.4
2022-12-28T13:39:40.078Z,989.3
2022-12-28T13:42:06.158Z,989.4
2022-12-28T13:44:32.260Z,989.3
2022-12-28T13:46:58.362Z,989.2
2022-12-28T13:49:24.453Z,989.2
2022-12-28T13:51:50.553Z,989.2
2022-12-28T13:54:16.642Z,989.1
2022-12-28T13:56:42.731Z,989.1
2022-12-28T13:59:08.828Z,989.2
2022-12-28T14:01:34.926Z,989.1
2022-12-28T14:04:01.051Z,989.2
2022-12-28T14:06:26.119Z,989.2
2022-12-28T14:08:52.222Z,989.1
2022-12-28T14:11:18.328Z,989.1
2022-12-28T14:13:44.414Z,989.1
2022-12-28T14:16:10.504Z,989.1
2022-12-28T14:18:36.633Z,989.1
2022-12-28T14:21:02.694Z,989
2022-12-28T14:23:28.813Z,989.1
2022-12-28T14:25:54.889Z,989
2022-12-28T14:28:20.992Z,989
2022-12-28T14:30:47.088Z,989
2022-12-28T14:33:13.172Z,988.9
2022-12-28T14:35:39.273Z,989
2022-12-28T14:38:04.370Z,989
2022-12-28T14:40:30.548Z,988.9
2022-12-28T14:42:56.876Z,988.9
2022-12-28T14:45:23.013Z,988.8
2022-12-28T14:47:48.804Z,988.7
2022-12-28T14:50:14.874Z,988.7
2022-12-28T14:52:41.114Z,988.7
2022-12-28T14:55:07.125Z,988.7
2022-12-28T14:57:33.301Z,988.7
2022-12-28T14:59:59.334Z,988.7
2022-12-28T15:02:25.483Z,988.7
2022-12-28T15:04:51.612Z,988.6
2022-12-28T15:07:17.674Z,988.6
2022-12-28T15:09:42.751Z,988.5
2022-12-28T15:12:08.878Z,988.5
2022-12-28T15:14:34.861Z,988.6
2022-12-28T15:17:00.934Z,988.5
2022-12-28T15:19:27.034Z,988.5
2022-12-28T15:21:53.132Z,988.6
2022-12-28T15:24:19.206Z,988.6
2022-12-28T15:26:45.302Z,988.6
2022-12-28T15:29:11.477Z,988.6
2022-12-28T15:31:37.504Z,988.6
2022-12-28T15:34:03.620Z,988.6
2022-12-28T15:36:29.706Z,988.6
2022-12-28T15:38:55.868Z,988.6
2022-12-28T15:41:20.909Z,988.5
2022-12-28T15:43:47.004Z,988.5
2022-12-28T15:46:13.090Z,988.5
2022-12-28T15:48:39.193Z,988.5
2022-12-28T15:51:05.290Z,988.4
2022-12-28T15:53:31.381Z,988.5
2022-12-28T15:55:57.478Z,988.4
2022-12-28T15:58:23.587Z,988.5
2022-12-28T16:00:49.669Z,988.5
2022-12-28T16:03:15.770Z,988.4
2022-12-28T16:05:41.871Z,988.4
2022-12-28T16:08:07.957Z,988.4
2022-12-28T16:10:34.070Z,988.4
2022-12-28T16:12:59.203Z,988.4
2022-12-28T16:15:25.263Z,988.5
2022-12-28T16:17:51.362Z,988.4
2022-12-28T16:20:17.459Z,988.4
2022-12-28T16:22:43.555Z,988.3
2022-12-28T16:25:09.656Z,988.3
2022-12-28T16:27:35.745Z,988.2
2022-12-28T16:30:01.851Z,988.2
2022-12-28T16:32:27.936Z,988.2
2022-12-28T16:34:54.031Z,988.2
2022-12-28T16:37:20.131Z,988.3
2022-12-28T16:39:46.228Z,988.2
2022-12-28T16:42:12.376Z,988.1
2022-12-28T16:44:37.427Z,988.1
2022-12-28T16:47:03.533Z,988
2022-12-28T16:49:29.636Z,988
2022-12-28T16:51:55.732Z,987.9
2022-12-28T16:54:21.815Z,988
2022-12-28T16:56:47.916Z,987.9
2022-12-28T16:59:14.018Z,987.9
2022-12-28T17:01:40.107Z,987.8
2022-12-28T17:04:06.223Z,987.8
2022-12-28T17:06:32.296Z,987.9
2022-12-28T17:08:58.443Z,987.9
2022-12-28T17:11:24.483Z,987.8
2022-12-28T17:13:50.589Z,987.9
2022-12-28T17:16:15.705Z,987.8
2022-12-28T17:18:41.810Z,987.8
2022-12-28T17:21:07.888Z,987.9
2022-12-28T17:23:34.005Z,987.7
2022-12-28T17:26:00.088Z,987.8
2022-12-28T17:28:26.178Z,987.8
2022-12-28T17:30:52.267Z,987.8
2022-12-28T17:33:18.351Z,987.8
2022-12-28T17:35:44.448Z,987.7
2022-12-28T17:38:10.545Z,987.7
2022-12-28T17:40:36.659Z,987.7
2022-12-28T17:43:02.747Z,987.7
2022-12-28T17:45:28.856Z,987.7
2022-12-28T17:47:53.957Z,987.7
2022-12-28T17:50:20.061Z,987.6
2022-12-28T17:52:46.160Z,987.6
2022-12-28T17:55:12.238Z,987.6
2022-12-28T17:57:38.329Z,987.5
2022-12-28T18:00:04.433Z,987.5
2022-12-28T18:02:30.522Z,987.5
2022-12-28T18:04:56.627Z,987.4
2022-12-28T18:07:22.731Z,987.5
2022-12-28T18:09:48.814Z,987.5
2022-12-28T18:12:14.926Z,987.5
2022-12-28T18:14:41.029Z,987.3
2022-12-28T18:17:07.125Z,987.3
2022-12-28T18:19:32.240Z,987.3
2022-12-28T18:21:58.300Z,987.3
2022-12-28T18:24:24.444Z,987.2
2022-12-28T18:26:50.502Z,987.2
2022-12-28T18:29:16.596Z,987.2
2022-12-28T18:31:42.692Z,987.1
2022-12-28T18:34:08.789Z,987.1
2022-12-28T18:36:34.892Z,987.1
2022-12-28T18:39:01.001Z,987.1
2022-12-28T18:41:27.087Z,987
2022-12-28T18:43:53.177Z,987
2022-12-28T18:46:19.307Z,987
2022-12-28T18:48:45.384Z,987
2022-12-28T18:51:10.471Z,986.9
2022-12-28T18:53:36.578Z,986.9
2022-12-28T18:56:02.667Z,986.9
2022-12-28T18:58:28.751Z,986.9
2022-12-28T19:00:54.860Z,986.8
2022-12-28T19:03:20.953Z,986.9
2022-12-28T19:05:47.052Z,986.9
2022-12-28T19:08:13.152Z,986.7
2022-12-28T19:10:39.236Z,986.7
2022-12-28T19:13:05.330Z,986.7
2022-12-28T19:15:31.434Z,986.6
2022-12-28T19:17:57.526Z,986.6
2022-12-28T19:20:23.629Z,986.6
2022-12-28T19:22:48.794Z,986.6
2022-12-28T19:25:14.837Z,986.6
2022-12-28T19:27:40.926Z,986.6
2022-12-28T19:30:07.029Z,986.6
2022-12-28T19:32:33.128Z,986.4
2022-12-28T19:34:59.227Z,986.4
2022-12-28T19:37:25.301Z,986.4
2022-12-28T19:39:51.408Z,986.4
2022-12-28T19:42:17.496Z,986.4
2022-12-28T19:44:43.596Z,986.4
2022-12-28T19:47:09.699Z,986.3
2022-12-28T19:49:35.795Z,986.3
2022-12-28T19:52:01.883Z,986.3
2022-12-28T19:54:27.005Z,986.3
2022-12-28T19:56:53.112Z,986.3
2022-12-28T19:59:19.191Z,986.3
2022-12-28T20:01:45.297Z,986.3
2022-12-28T20:04:11.367Z,986.2
2022-12-28T20:06:37.485Z,986.2
2022-12-28T20:09:03.595Z,986.2
2022-12-28T20:11:29.687Z,986.1
2022-12-28T20:13:55.762Z,986
2022-12-28T20:16:21.849Z,986
2022-12-28T20:18:47.989Z,986.1
2022-12-28T20:21:14.040Z,986.1
2022-12-28T20:23:40.147Z,986.1
2022-12-28T20:26:05.262Z,986.1
2022-12-28T20:28:31.347Z,986.1
2022-12-28T20:30:57.438Z,986
2022-12-28T20:33:23.542Z,986.1
2022-12-28T20:35:49.637Z,986.1
2022-12-28T20:38:15.738Z,986
2022-12-28T20:40:41.842Z,986
2022-12-28T20:43:07.936Z,985.9
2022-12-28T20:45:34.030Z,985.9
2022-12-28T20:48:00.113Z,986
2022-12-28T20:50:26.220Z,985.9
2022-12-28T20:52:52.300Z,985.9
2022-12-28T20:55:18.420Z,985.8
2022-12-28T20:57:43.528Z,985.9
2022-12-28T21:00:09.740Z,985.8
2022-12-28T21:02:35.731Z,985.8
2022-12-28T21:05:01.826Z,985.8
2022-12-28T21:07:27.889Z,985.7
2022-12-28T21:09:54.004Z,985.7
2022-12-28T21:12:19.108Z,985.7
2022-12-28T21:14:45.223Z,985.7
2022-12-28T21:17:11.302Z,985.7
2022-12-28T21:19:37.409Z,985.7
2022-12-28T21:22:03.504Z,985.6
2022-12-28T21:24:29.613Z,985.6
2022-12-28T21:26:55.703Z,985.6
2022-12-28T21:29:21.821Z,985.6
2022-12-28T21:31:47.884Z,985.6
2022-12-28T21:34:13.991Z,985.5
2022-12-28T21:36:40.092Z,985.5
2022-12-28T21:39:06.157Z,985.5
2022-12-28T21:41:32.261Z,985.5
2022-12-28T21:43:57.373Z,985.4
2022-12-28T21:46:23.467Z,985.4
2022-12-28T21:48:49.567Z,985.4
2022-12-28T21:51:15.668Z,985.4
2022-12-28T21:53:41.745Z,985.4
2022-12-28T21:56:07.854Z,985.3
2022-12-28T21:58:33.952Z,985.4
2022-12-28T22:01:00.054Z,985.3
2022-12-28T22:03:26.132Z,985.3
2022-12-28T22:05:52.244Z,985.2
2022-12-28T22:08:18.422Z,985.2
2022-12-28T22:10:44.426Z,985.2
2022-12-28T22:13:10.578Z,985.3
2022-12-28T22:15:35.700Z,985.2
2022-12-28T22:18:01.740Z,985.2
2022-12-28T22:20:27.846Z,985.2
2022-12-28T22:22:53.933Z,985.1
2022-12-28T22:25:20.021Z,985.1
2022-12-28T22:27:46.251Z,985
2022-12-28T22:30:12.220Z,985.1
2022-12-28T22:32:38.404Z,985.1
2022-12-28T22:35:04.429Z,985.1
2022-12-28T22:37:30.505Z,985.1
2022-12-28T22:39:56.588Z,985.1
2022-12-28T22:42:22.712Z,985.1
2022-12-28T22:44:48.802Z,985
2022-12-28T22:47:13.910Z,985
2022-12-28T22:49:39.990Z,985
2022-12-28T22:52:06.092Z,985
2022-12-28T22:54:32.179Z,985
2022-12-28T22:56:58.285Z,984.9
2022-12-28T22:59:24.402Z,984.9
2022-12-28T23:01:50.534Z,984.9
2022-12-28T23:04:16.567Z,984.9
2022-12-28T23:06:42.661Z,984.8
2022-12-28T23:09:08.755Z,984.8
2022-12-28T23:11:34.855Z,984.8
2022-12-28T23:14:00.960Z,984.8
2022-12-28T23:16:27.056Z,984.8
2022-12-28T23:18:52.161Z,984.8
2022-12-28T23:21:18.258Z,984.9
2022-12-28T23:23:44.364Z,984.9
2022-12-28T23:26:10.460Z,984.9
2022-12-28T23:28:36.618Z,984.9
2022-12-28T23:31:02.638Z,984.8
2022-12-28T23:33:28.754Z,984.8
2022-12-28T23:35:54.835Z,984.8
2022-12-28T23:38:20.924Z,984.9
2022-12-28T23:40:47.014Z,984.8
2022-12-28T23:43:13.194Z,984.8
2022-12-28T23:45:39.205Z,984.7
2022-12-28T23:48:05.321Z,984.7
2022-12-28T23:50:30.446Z,984.7
2022-12-28T23:52:56.539Z,984.6
2022-12-28T23:55:22.617Z,984.6
2022-12-28T23:57:48.722Z,984.6
